x

South Brooks (46132) Wave Buoy

2:00 - Thu 29th Jun 2017 All times are PDT. -7 hours from GMT.

  • Sig Wave height 6.2ft
  • Peak Period 10s
  • Wind
    22mph, 27mph gusts
  • Sea Temp 52°f
  • Air Temp 53°f
  • Sea Pressure 1019.1mb
  • South Brooks
  • South Brooks

More Historic Weather Station data

Upgrade to MSW Pro to gain access to the past 30 days of data for over 8000 Wavebouys and Weather Stations around the globe.

Join Pro

Comparision Forecast

View Surf forecast
   
jeu. 06/29 2:00 6ft 10s 22 27 mph 1019.1mb 52f 53f
1:00 7ft 11s 22 27 mph 1018.9mb 52f 53f
12:00 6.5ft 5s 27 34 mph 1018.6mb 52f 53f
mer. 06/28 11:00 6ft 5s 25 31 mph 1018.6mb 53f 53f
10:00 6.5ft 11s 25 31 mph 1018.8mb 53f 53f
9:00 6.5ft 10s 25 29 mph 1018.4mb 53f 54f
8:00 6.5ft 10s 25 29 mph 1018.2mb 53f 54f
7:00 7ft 11s 25 29 mph 1018.7mb 53f 54f
5:00 7ft 5s 29 34 mph 1018.2mb 53f 54f
4:00 7ft 12s 25 34 mph 1018.4mb 53f 54f
3:00 7ft 8s 25 31 mph 1018.4mb 53f 54f
2:00 7ft 8s 22 27 mph 1018.6mb 53f 54f
1:00 7ft 7s 27 31 mph 1018.3mb 53f 54f
12:00 7.5ft 8s 22 29 mph 1018.6mb 53f 54f
11:00 7.5ft 8s 25 27 mph 1018.3mb 53f 54f
10:00 7ft 7s 22 29 mph 1018.5mb 53f 54f
9:00 7ft 7s 20 27 mph 1018.4mb 53f 54f
8:00 6.5ft 7s 22 29 mph 1017.9mb 53f 54f
7:00 6ft 8s 25 29 mph 1017.5mb 53f 54f
6:00 6.5ft 8s 22 27 mph 1017.8mb 53f 54f
5:00 6ft 7s 27 31 mph 1017.2mb 53f 53f
4:00 7ft 7s 25 29 mph 1017mb 53f 54f
3:00 6.5ft 7s 27 31 mph 1016.8mb 53f 54f
2:00 6.5ft 7s 22 27 mph 1017.3mb 53f 53f
1:00 7ft 7s 22 27 mph 1017.9mb 53f 54f
12:00 7ft 7s 27 31 mph 1017.8mb 53f 53f
mar. 06/27 11:00 7ft 5s 25 31 mph 1018.4mb 53f 54f
10:00 7ft 8s 27 31 mph 1018.4mb 53f 54f
9:00 7.5ft 8s 25 31 mph 1018.3mb 52f 54f
8:00 7ft 7s 27 34 mph 1018.2mb 52f 54f
7:00 8ft 7s 27 34 mph 1018.5mb 52f 54f
6:00 7.5ft 8s 27 36 mph 1018.7mb 52f 54f
5:00 7ft 8s 29 36 mph 1018.7mb 53f 54f
4:00 8ft 8s 29 34 mph 1018.8mb 53f 54f
3:00 8ft 8s 29 34 mph 1018.8mb 53f 54f
2:00 8ft 8s 29 36 mph 1018.9mb 53f 54f
1:00 8ft 8s 29 36 mph 1018.8mb 53f 54f
12:00 7.5ft 8s 29 34 mph 1018.9mb 53f 54f
10:00 7ft 9s 29 34 mph 1018.6mb 53f 54f
9:00 7ft 8s 25 31 mph 1019.3mb 53f 54f
8:00 7ft 8s 27 31 mph 1018.8mb 52f 55f
7:00 7ft 7s 27 31 mph 1018.9mb 52f 55f
6:00 6.5ft 8s 25 29 mph 1019mb 52f 55f
5:00 6.5ft 6s 27 31 mph 1018.5mb 52f 54f
4:00 6.5ft 7s 22 27 mph 1018.4mb 52f 54f
3:00 6.5ft 8s 22 27 mph 1018.5mb 52f 54f
2:00 7ft 8s 25 29 mph 1018.2mb 52f 54f
1:00 8ft 9s 25 29 mph 1018.6mb 52f 54f
12:00 7ft 5s 27 31 mph 1018.5mb 52f 54f
lun. 06/26 10:00 7ft 6s 27 34 mph 1018.5mb 53f 54f
9:00 7ft 7s 27 34 mph 1018.1mb 53f 54f
8:00 8ft 6s 27 34 mph 1017.6mb 53f 55f
7:00  -   -  29
mph
- - -
6:00 7ft 6s 27 31 mph 1017.5mb 53f 55f
5:00 7ft 7s 29 34 mph 1017.2mb 53f 55f
4:00 6ft 6s 25 29 mph 1017.5mb 53f 55f
3:00 7ft 6s 27 34 mph 1017.3mb 54f 55f
2:00 6.5ft 6s 27 31 mph 1017.4mb 54f 55f
11:00 6ft 9s 22 27 mph 1017.2mb 53f 55f
10:00 5ft 10s 20 25 mph 1017.3mb 53f 54f
9:00 5.5ft 9s 22 27 mph 1016.9mb 53f 54f
8:00 6ft 9s 22 27 mph 1016.5mb 53f 54f
7:00 6ft 9s 22 27 mph 1016.5mb 53f 54f
6:00 6ft 10s 22 27 mph 1016.4mb 53f 54f
5:00 6ft 5s 25 29 mph 1016.1mb 53f 54f
4:00 6.5ft 6s 27 31 mph 1015.8mb 54f 55f
3:00 6.5ft 6s 29 34 mph 1015.1mb 54f 55f
2:00 7ft 6s 27 34 mph 1015.1mb 54f 54f
1:00 7ft 5s 27 36 mph 1014.9mb 54f 54f
12:00 7ft 6s 27 36 mph 1014.5mb 54f 54f
dim. 06/25 11:00 7ft 5s 27 34 mph 1014.6mb 54f 54f
10:00 7ft 5s 27 34 mph 1014.8mb 54f 54f
9:00 7ft 5s 27 34 mph 1014.7mb 54f 54f
8:00 7ft 6s 27 36 mph 1015.1mb 54f 54f
7:00 7ft 6s 27 34 mph 1015.3mb 54f 54f
6:00 7ft 6s 27 31 mph 1015.6mb 54f 54f
4:00 7ft 6s 25 31 mph 1016.3mb 55f 55f
3:00 7ft 6s 27 31 mph 1016.2mb 55f 55f
2:00  -   -  27
mph
1016.2mb 55f 54f
1:00 6.5ft 6s 27 31 mph 1016.2mb 55f 54f
12:00 6.5ft 6s 27 31 mph 1016.3mb 55f 54f